Time;durP1;ratioP1;P1;durP2;ratioP2;P2;SDS_P1;SDS_P2;PMS_P1;PMS_P2;Temp;Humidity;BMP_temperature;BMP_pressure;BME280_temperature;BME280_humidity;BME280_pressure;Samples;Min_cycle;Max_cycle;Signal;HPM_P1;HPM_P2
2023/03/22 00:00:26;;;;;;;20.20;7.72;;;;;;;;;;5069693;28;20029;-67
2023/03/22 00:02:51;;;;;;;20.88;8.43;;;;;;;;;;5077359;28;20115;-66
2023/03/22 00:05:16;;;;;;;17.95;7.82;;;;;;;;;;5077219;28;20087;-66
2023/03/22 00:07:42;;;;;;;13.95;7.60;;;;;;;;;;5088534;28;20027;-66
2023/03/22 00:10:07;;;;;;;14.70;7.03;;;;;;;;;;5072804;28;20028;-65
2023/03/22 00:12:33;;;;;;;22.30;7.55;;;;;;;;;;5070231;28;20044;-66
2023/03/22 00:14:59;;;;;;;16.10;7.30;;;;;;;;;;5070024;28;20391;-64
2023/03/22 00:17:24;;;;;;;13.05;7.10;;;;;;;;;;5069758;28;20518;-66
2023/03/22 00:19:53;;;;;;;14.55;6.45;;;;;;;;;;5085005;28;20043;-65
2023/03/22 00:22:18;;;;;;;21.17;7.30;;;;;;;;;;5070302;28;20020;-65
2023/03/22 00:24:43;;;;;;;11.90;6.38;;;;;;;;;;5086053;28;20026;-67
2023/03/22 00:27:09;;;;;;;13.95;6.43;;;;;;;;;;5078625;28;20023;-66
2023/03/22 00:29:34;;;;;;;15.73;6.43;;;;;;;;;;5070075;28;20099;-64
2023/03/22 00:31:59;;;;;;;16.75;6.22;;;;;;;;;;5069504;28;20100;-67
2023/03/22 00:34:25;;;;;;;13.55;6.10;;;;;;;;;;5080672;28;20120;-65
2023/03/22 00:36:51;;;;;;;13.48;6.32;;;;;;;;;;5069523;28;20400;-67
2023/03/22 00:39:16;;;;;;;15.43;6.82;;;;;;;;;;5077508;28;20592;-66
2023/03/22 00:41:41;;;;;;;12.00;5.55;;;;;;;;;;5082916;28;20027;-67
2023/03/22 00:44:06;;;;;;;16.90;6.10;;;;;;;;;;5072938;28;20020;-64
2023/03/22 00:46:32;;;;;;;12.02;5.90;;;;;;;;;;5080796;28;20062;-67
2023/03/22 00:48:57;;;;;;;14.57;6.28;;;;;;;;;;5078227;28;20017;-64
2023/03/22 00:51:23;;;;;;;12.50;5.85;;;;;;;;;;5070884;28;20504;-67
2023/03/22 00:53:49;;;;;;;17.52;6.85;;;;;;;;;;5068881;28;20025;-66
2023/03/22 00:56:15;;;;;;;13.27;5.10;;;;;;;;;;5068837;28;20028;-65
2023/03/22 00:58:41;;;;;;;12.73;5.22;;;;;;;;;;5069082;28;20040;-67
2023/03/22 01:01:06;;;;;;;11.13;6.63;;;;;;;;;;5077685;28;20028;-64
2023/03/22 01:03:32;;;;;;;12.25;5.90;;;;;;;;;;5082126;28;20312;-67
2023/03/22 01:05:57;;;;;;;12.30;6.25;;;;;;;;;;5078337;28;20012;-67
2023/03/22 01:08:31;;;;;;;14.70;6.68;;;;;;;;;;5086334;28;20091;-67
2023/03/22 01:10:57;;;;;;;14.95;6.18;;;;;;;;;;5068841;28;20046;-65
2023/03/22 01:13:22;;;;;;;13.70;6.80;;;;;;;;;;5068726;28;20081;-67
2023/03/22 01:15:49;;;;;;;18.38;7.22;;;;;;;;;;5068909;28;20494;-64
2023/03/22 01:18:14;;;;;;;18.02;6.88;;;;;;;;;;5070566;28;20634;-62
2023/03/22 01:20:39;;;;;;;14.00;6.15;;;;;;;;;;5077505;28;20032;-67
2023/03/22 01:23:05;;;;;;;15.23;5.75;;;;;;;;;;5068451;28;20048;-65
2023/03/22 01:25:30;;;;;;;12.00;5.25;;;;;;;;;;5068914;28;20029;-67
2023/03/22 01:27:55;;;;;;;9.95;4.53;;;;;;;;;;5067914;28;20074;-66
2023/03/22 01:30:20;;;;;;;12.75;4.95;;;;;;;;;;5050109;28;20139;-66
2023/03/22 01:32:46;;;;;;;9.45;4.50;;;;;;;;;;5067819;28;20012;-64
2023/03/22 01:35:11;;;;;;;9.55;5.60;;;;;;;;;;5072848;28;20024;-66
2023/03/22 01:37:36;;;;;;;12.13;5.18;;;;;;;;;;5068436;28;20025;-64
2023/03/22 01:40:02;;;;;;;14.77;5.28;;;;;;;;;;5083616;28;20032;-64
2023/03/22 01:42:28;;;;;;;13.43;6.10;;;;;;;;;;5096227;28;20037;-67
2023/03/22 01:45:25;;;;;;;10.30;5.25;;;;;;;;;;5088659;28;20103;-63
2023/03/22 01:47:54;;;;;;;10.02;5.18;;;;;;;;;;5080062;28;20446;-65
2023/03/22 01:50:19;;;;;;;10.30;5.00;;;;;;;;;;5068471;28;20055;-66
2023/03/22 01:52:45;;;;;;;14.18;5.53;;;;;;;;;;5068269;28;20064;-67
2023/03/22 01:55:11;;;;;;;10.43;5.28;;;;;;;;;;5068073;28;20016;-64
2023/03/22 01:57:36;;;;;;;8.27;4.78;;;;;;;;;;5076286;28;20028;-67
2023/03/22 02:00:07;;;;;;;9.63;4.25;;;;;;;;;;5068069;28;20151;-63
2023/03/22 02:02:33;;;;;;;9.07;4.93;;;;;;;;;;5076472;28;20133;-65
2023/03/22 02:04:59;;;;;;;14.07;4.90;;;;;;;;;;5059469;28;20082;-64
2023/03/22 02:07:26;;;;;;;9.82;4.60;;;;;;;;;;5088266;28;20035;-66
2023/03/22 02:09:54;;;;;;;16.42;5.80;;;;;;;;;;5073951;28;20027;-66
2023/03/22 02:12:19;;;;;;;24.00;7.93;;;;;;;;;;5067933;28;20104;-65
2023/03/22 02:15:04;;;;;;;19.10;7.30;;;;;;;;;;5069744;28;20112;-67
2023/03/22 02:17:50;;;;;;;14.13;5.93;;;;;;;;;;5072095;28;20281;-66
2023/03/22 02:20:37;;;;;;;13.15;6.28;;;;;;;;;;5076694;28;20052;-66
2023/03/22 02:23:11;;;;;;;13.18;6.20;;;;;;;;;;5071893;28;20013;-67
2023/03/22 02:25:36;;;;;;;10.48;6.28;;;;;;;;;;5071785;28;20593;-64
2023/03/22 02:28:26;;;;;;;13.40;6.10;;;;;;;;;;5071381;28;20013;-65
2023/03/22 02:30:51;;;;;;;11.77;5.15;;;;;;;;;;5072116;28;20062;-64
2023/03/22 02:33:16;;;;;;;9.82;5.07;;;;;;;;;;5071881;28;20489;-65
2023/03/22 02:35:50;;;;;;;11.77;5.40;;;;;;;;;;5084731;28;20073;-65
2023/03/22 02:38:32;;;;;;;13.30;4.82;;;;;;;;;;5052887;28;20020;-65
2023/03/22 02:41:07;;;;;;;13.45;5.15;;;;;;;;;;5091858;28;20087;-66
2023/03/22 02:43:51;;;;;;;15.38;5.28;;;;;;;;;;5072029;28;20495;-66
2023/03/22 02:46:23;;;;;;;8.35;4.78;;;;;;;;;;5071251;28;20024;-64
2023/03/22 02:48:48;;;;;;;12.20;4.88;;;;;;;;;;5071383;28;20041;-64
2023/03/22 02:51:17;;;;;;;10.13;4.93;;;;;;;;;;5077292;28;20466;-66
2023/03/22 02:53:46;;;;;;;10.18;5.03;;;;;;;;;;5071504;28;20273;-67
2023/03/22 02:56:11;;;;;;;10.63;5.35;;;;;;;;;;5071567;28;20025;-65
2023/03/22 02:58:44;;;;;;;14.43;4.70;;;;;;;;;;5071259;28;20407;-67
2023/03/22 03:01:12;;;;;;;8.15;4.82;;;;;;;;;;5065013;28;20052;-63
2023/03/22 03:03:38;;;;;;;9.70;5.15;;;;;;;;;;5086042;28;20107;-67
2023/03/22 03:06:12;;;;;;;12.98;5.40;;;;;;;;;;5082545;28;20485;-66
2023/03/22 03:08:38;;;;;;;9.43;4.47;;;;;;;;;;5082895;28;20088;-65
2023/03/22 03:11:04;;;;;;;10.02;4.72;;;;;;;;;;5071364;28;20082;-64
2023/03/22 03:13:29;;;;;;;12.02;5.43;;;;;;;;;;5071443;28;20032;-66
2023/03/22 03:15:57;;;;;;;14.35;5.38;;;;;;;;;;5071714;28;20043;-66
2023/03/22 03:18:25;;;;;;;16.50;5.28;;;;;;;;;;5070946;28;20105;-67
2023/03/22 03:21:09;;;;;;;12.15;5.05;;;;;;;;;;5082374;28;20020;-63
2023/03/22 03:23:48;;;;;;;11.93;4.65;;;;;;;;;;5071125;28;20025;-68
2023/03/22 03:26:21;;;;;;;10.77;4.80;;;;;;;;;;5071641;28;20023;-65
2023/03/22 03:28:49;;;;;;;8.55;4.47;;;;;;;;;;5072075;28;20058;-62
2023/03/22 03:31:19;;;;;;;10.27;4.78;;;;;;;;;;5071174;28;20020;-67
2023/03/22 03:34:01;;;;;;;7.10;4.07;;;;;;;;;;5071264;28;20346;-67
2023/03/22 03:36:27;;;;;;;10.02;4.68;;;;;;;;;;5063587;28;20028;-66
2023/03/22 03:38:53;;;;;;;9.38;4.13;;;;;;;;;;5074825;28;20016;-66
2023/03/22 03:41:23;;;;;;;8.80;4.75;;;;;;;;;;5088784;28;20016;-64
2023/03/22 03:43:50;;;;;;;8.80;4.18;;;;;;;;;;5094514;28;20095;-63
2023/03/22 03:46:15;;;;;;;13.02;4.32;;;;;;;;;;5082018;28;20092;-67
2023/03/22 03:48:43;;;;;;;12.35;4.57;;;;;;;;;;5073109;28;20155;-66
2023/03/22 03:51:08;;;;;;;10.25;4.93;;;;;;;;;;5079125;28;20104;-66
2023/03/22 03:53:33;;;;;;;10.32;4.70;;;;;;;;;;5083364;28;20111;-66
2023/03/22 03:55:59;;;;;;;11.18;4.85;;;;;;;;;;5070153;28;20027;-64
2023/03/22 03:58:24;;;;;;;10.98;4.65;;;;;;;;;;5051250;28;20020;-66
2023/03/22 04:00:49;;;;;;;11.18;4.10;;;;;;;;;;5070076;28;20047;-64
2023/03/22 04:03:15;;;;;;;10.98;4.20;;;;;;;;;;5069920;28;20029;-66
2023/03/22 04:05:40;;;;;;;9.98;5.13;;;;;;;;;;5076646;28;20024;-66
2023/03/22 04:08:06;;;;;;;9.20;4.13;;;;;;;;;;5089062;28;20094;-67
2023/03/22 04:10:31;;;;;;;9.63;5.07;;;;;;;;;;5069863;28;20426;-63
2023/03/22 04:12:56;;;;;;;12.68;4.65;;;;;;;;;;5069449;28;20020;-64
2023/03/22 04:15:21;;;;;;;9.05;4.45;;;;;;;;;;5069883;28;20108;-66
2023/03/22 04:17:46;;;;;;;9.43;4.20;;;;;;;;;;5051142;28;20020;-67
2023/03/22 04:20:12;;;;;;;9.73;3.80;;;;;;;;;;5069611;28;20104;-66
2023/03/22 04:22:38;;;;;;;12.95;4.38;;;;;;;;;;5075598;28;20016;-64
2023/03/22 04:25:05;;;;;;;8.73;4.45;;;;;;;;;;5069449;28;20017;-66
2023/03/22 04:27:30;;;;;;;8.73;4.63;;;;;;;;;;5069155;28;20040;-63
2023/03/22 04:29:56;;;;;;;9.95;4.40;;;;;;;;;;5069437;28;20024;-66
2023/03/22 04:32:22;;;;;;;11.18;4.22;;;;;;;;;;5051598;28;20035;-65
2023/03/22 04:34:51;;;;;;;9.98;4.72;;;;;;;;;;5069656;28;20080;-62
2023/03/22 04:37:17;;;;;;;11.65;4.88;;;;;;;;;;5069879;28;20038;-66
2023/03/22 04:39:42;;;;;;;11.30;4.68;;;;;;;;;;5073085;28;20028;-64
2023/03/22 04:42:07;;;;;;;13.02;4.40;;;;;;;;;;5098318;28;20103;-63
2023/03/22 04:44:32;;;;;;;11.48;4.80;;;;;;;;;;5071182;28;20419;-67
2023/03/22 04:46:57;;;;;;;10.75;5.32;;;;;;;;;;5074598;28;20078;-62
2023/03/22 04:49:23;;;;;;;13.68;5.35;;;;;;;;;;5069270;28;20084;-65
2023/03/22 04:51:48;;;;;;;9.50;5.65;;;;;;;;;;5080191;28;20039;-67
2023/03/22 04:54:13;;;;;;;9.85;5.07;;;;;;;;;;5069149;28;20078;-65
2023/03/22 04:56:39;;;;;;;12.55;5.50;;;;;;;;;;5069122;28;20675;-66
2023/03/22 04:59:04;;;;;;;11.07;4.95;;;;;;;;;;5069041;28;20478;-67
2023/03/22 05:01:29;;;;;;;13.10;5.45;;;;;;;;;;5069547;28;20020;-63
2023/03/22 05:03:55;;;;;;;13.15;5.65;;;;;;;;;;5070743;28;20438;-68
2023/03/22 05:06:20;;;;;;;11.82;5.07;;;;;;;;;;5082035;28;20012;-65
2023/03/22 05:08:45;;;;;;;11.98;5.15;;;;;;;;;;5083972;28;20162;-68
2023/03/22 05:11:12;;;;;;;13.10;5.82;;;;;;;;;;5069084;28;20025;-66
2023/03/22 05:13:37;;;;;;;12.73;5.72;;;;;;;;;;5069414;28;20551;-66
2023/03/22 05:16:03;;;;;;;12.35;5.25;;;;;;;;;;5069559;28;20103;-66
2023/03/22 05:18:29;;;;;;;10.75;5.38;;;;;;;;;;5056436;28;20024;-64
2023/03/22 05:20:55;;;;;;;16.73;6.90;;;;;;;;;;5083979;28;20020;-66
2023/03/22 05:23:21;;;;;;;11.30;5.15;;;;;;;;;;5093099;28;20346;-66
2023/03/22 05:25:46;;;;;;;14.18;5.30;;;;;;;;;;5079515;28;20035;-63
2023/03/22 05:28:13;;;;;;;12.27;5.78;;;;;;;;;;5076910;28;20091;-66
2023/03/22 05:30:38;;;;;;;12.45;6.03;;;;;;;;;;5088306;28;20490;-66
2023/03/22 05:33:04;;;;;;;12.20;6.85;;;;;;;;;;5079682;28;20046;-67
2023/03/22 05:35:29;;;;;;;12.10;5.60;;;;;;;;;;5070825;28;20623;-65
2023/03/22 05:37:55;;;;;;;12.25;6.15;;;;;;;;;;5067726;28;20073;-64
2023/03/22 05:40:21;;;;;;;13.57;6.72;;;;;;;;;;5078598;28;20532;-62
2023/03/22 05:42:46;;;;;;;13.35;5.97;;;;;;;;;;5088533;28;20012;-65
2023/03/22 05:45:11;;;;;;;12.45;6.20;;;;;;;;;;5073244;28;20486;-66
2023/03/22 05:47:38;;;;;;;13.02;6.82;;;;;;;;;;5068293;28;20046;-64
2023/03/22 05:50:04;;;;;;;15.85;6.53;;;;;;;;;;5050030;28;20102;-65
2023/03/22 05:52:29;;;;;;;22.10;8.07;;;;;;;;;;5082516;28;20012;-66
2023/03/22 05:54:55;;;;;;;13.43;6.70;;;;;;;;;;5088366;28;20032;-69
2023/03/22 05:57:21;;;;;;;15.27;6.95;;;;;;;;;;5073938;28;20024;-67
2023/03/22 05:59:46;;;;;;;13.88;6.57;;;;;;;;;;5079236;28;20055;-66
2023/03/22 06:02:11;;;;;;;14.93;7.05;;;;;;;;;;5076287;28;20042;-66
2023/03/22 06:04:36;;;;;;;15.25;7.50;;;;;;;;;;5070474;28;20471;-66
2023/03/22 06:07:01;;;;;;;16.95;7.40;;;;;;;;;;5078533;28;20020;-67
2023/03/22 06:09:27;;;;;;;14.98;8.00;;;;;;;;;;5084106;28;20199;-65
2023/03/22 06:11:52;;;;;;;19.45;7.68;;;;;;;;;;5071202;28;20089;-69
2023/03/22 06:14:17;;;;;;;18.17;7.90;;;;;;;;;;5082607;28;20422;-65
2023/03/22 06:16:42;;;;;;;12.25;7.07;;;;;;;;;;5099251;28;20016;-66
2023/03/22 06:19:08;;;;;;;16.25;7.93;;;;;;;;;;5080174;28;20111;-68
2023/03/22 06:21:35;;;;;;;27.90;7.65;;;;;;;;;;5083258;28;20073;-66
2023/03/22 06:24:00;;;;;;;15.93;7.50;;;;;;;;;;5079750;28;20028;-65
2023/03/22 06:26:26;;;;;;;14.02;7.38;;;;;;;;;;5071244;28;20072;-68
2023/03/22 06:28:51;;;;;;;18.95;7.43;;;;;;;;;;5082957;28;20020;-67
2023/03/22 06:31:16;;;;;;;24.27;7.95;;;;;;;;;;5084595;28;20093;-66
2023/03/22 06:33:41;;;;;;;13.48;7.97;;;;;;;;;;5085090;28;20035;-69
2023/03/22 06:36:07;;;;;;;20.10;7.53;;;;;;;;;;5070790;28;20433;-63
2023/03/22 06:38:32;;;;;;;12.05;7.15;;;;;;;;;;5071887;28;20040;-66
2023/03/22 06:40:57;;;;;;;18.15;8.05;;;;;;;;;;5086254;28;20022;-66
2023/03/22 06:43:22;;;;;;;14.77;7.13;;;;;;;;;;5092800;28;20465;-64
2023/03/22 06:45:48;;;;;;;14.13;7.75;;;;;;;;;;5067854;28;20425;-67
2023/03/22 06:48:13;;;;;;;28.15;9.48;;;;;;;;;;5070215;28;20622;-63
2023/03/22 06:50:40;;;;;;;13.00;7.53;;;;;;;;;;5082515;28;20412;-67
2023/03/22 06:53:05;;;;;;;17.50;8.18;;;;;;;;;;5077119;28;20470;-62
2023/03/22 06:55:33;;;;;;;17.42;6.63;;;;;;;;;;5080530;28;20116;-66
2023/03/22 06:58:02;;;;;;;14.60;7.53;;;;;;;;;;5087609;28;20046;-67
2023/03/22 07:00:27;;;;;;;20.27;7.43;;;;;;;;;;5086290;28;20021;-66
2023/03/22 07:02:52;;;;;;;16.92;7.25;;;;;;;;;;5091746;28;20146;-63
2023/03/22 07:05:18;;;;;;;20.08;7.85;;;;;;;;;;5079874;28;20044;-66
2023/03/22 07:07:44;;;;;;;18.50;6.93;;;;;;;;;;5071951;28;20061;-62
2023/03/22 07:10:10;;;;;;;16.38;7.50;;;;;;;;;;5079717;28;20582;-67
2023/03/22 07:12:35;;;;;;;23.88;7.38;;;;;;;;;;5088264;28;20044;-67
2023/03/22 07:15:01;;;;;;;12.98;7.45;;;;;;;;;;5087581;28;20066;-68
2023/03/22 07:17:26;;;;;;;19.15;7.40;;;;;;;;;;5078409;28;20111;-65
2023/03/22 07:19:51;;;;;;;15.77;7.80;;;;;;;;;;5072961;28;20020;-68
2023/03/22 07:22:20;;;;;;;16.95;7.78;;;;;;;;;;5071560;28;20028;-68
2023/03/22 07:24:45;;;;;;;14.50;7.28;;;;;;;;;;5091598;28;20099;-65
2023/03/22 07:27:10;;;;;;;14.43;7.47;;;;;;;;;;5090835;28;20048;-67
2023/03/22 07:29:36;;;;;;;15.60;7.25;;;;;;;;;;5086015;28;20023;-65
2023/03/22 07:32:01;;;;;;;14.98;7.28;;;;;;;;;;5085373;28;20035;-69
2023/03/22 07:34:26;;;;;;;15.50;7.45;;;;;;;;;;5085553;28;20511;-69
2023/03/22 07:36:51;;;;;;;12.23;6.53;;;;;;;;;;5074112;28;20085;-63
2023/03/22 07:39:17;;;;;;;25.73;7.63;;;;;;;;;;5051917;28;20063;-67
2023/03/22 07:41:42;;;;;;;15.73;7.20;;;;;;;;;;5104608;28;20015;-65
2023/03/22 07:44:07;;;;;;;15.82;7.20;;;;;;;;;;5078392;28;20043;-65
2023/03/22 07:46:32;;;;;;;16.60;7.15;;;;;;;;;;5089042;28;20038;-66
2023/03/22 07:48:58;;;;;;;25.27;7.03;;;;;;;;;;5086025;28;20020;-68
2023/03/22 07:51:23;;;;;;;15.90;7.60;;;;;;;;;;5081872;28;20058;-68
2023/03/22 07:53:48;;;;;;;12.57;7.15;;;;;;;;;;5064923;28;20066;-67
2023/03/22 07:56:14;;;;;;;11.80;6.95;;;;;;;;;;5070176;28;20074;-66
2023/03/22 07:58:39;;;;;;;16.52;6.70;;;;;;;;;;5069811;28;20017;-67
2023/03/22 08:01:07;;;;;;;19.42;7.13;;;;;;;;;;5070907;28;20013;-67
2023/03/22 08:03:33;;;;;;;21.17;8.55;;;;;;;;;;5080841;28;20031;-66
2023/03/22 08:06:02;;;;;;;13.95;6.95;;;;;;;;;;5088595;28;20032;-66
2023/03/22 08:08:27;;;;;;;14.57;7.45;;;;;;;;;;5089461;28;20042;-68
2023/03/22 08:10:53;;;;;;;19.05;7.82;;;;;;;;;;5072335;28;20104;-66
2023/03/22 08:13:18;;;;;;;12.35;7.45;;;;;;;;;;5070418;28;20028;-71
2023/03/22 08:15:43;;;;;;;16.58;7.57;;;;;;;;;;5070428;28;20024;-68
2023/03/22 08:18:09;;;;;;;15.45;6.82;;;;;;;;;;5070106;28;20036;-67
2023/03/22 08:20:36;;;;;;;16.83;7.28;;;;;;;;;;5075807;28;20082;-66
2023/03/22 08:23:01;;;;;;;19.23;6.75;;;;;;;;;;5073805;28;20029;-66
2023/03/22 08:25:28;;;;;;;12.27;6.50;;;;;;;;;;5070568;28;20119;-69
2023/03/22 08:27:53;;;;;;;13.63;6.35;;;;;;;;;;5069566;28;20497;-67
2023/03/22 08:30:20;;;;;;;13.10;6.53;;;;;;;;;;5070091;28;20028;-70
2023/03/22 08:32:46;;;;;;;20.38;7.45;;;;;;;;;;5069537;28;20021;-68
2023/03/22 08:35:11;;;;;;;12.43;6.72;;;;;;;;;;5071412;28;20636;-66
2023/03/22 08:37:36;;;;;;;13.18;5.97;;;;;;;;;;5073193;28;20017;-68
2023/03/22 08:40:05;;;;;;;17.38;6.55;;;;;;;;;;5079650;28;20020;-65
2023/03/22 08:42:30;;;;;;;10.90;6.53;;;;;;;;;;5100119;28;20076;-67
2023/03/22 08:44:55;;;;;;;14.75;6.60;;;;;;;;;;5090463;28;20020;-65
2023/03/22 08:47:21;;;;;;;15.02;6.50;;;;;;;;;;5073845;28;20047;-66
2023/03/22 08:49:46;;;;;;;13.98;6.68;;;;;;;;;;5070140;28;20102;-70
2023/03/22 08:52:11;;;;;;;11.30;6.72;;;;;;;;;;5071404;28;20473;-67
2023/03/22 08:54:37;;;;;;;12.30;6.70;;;;;;;;;;5070061;28;20467;-70
2023/03/22 08:57:02;;;;;;;16.92;7.85;;;;;;;;;;5068896;28;20085;-69
2023/03/22 08:59:27;;;;;;;13.23;6.07;;;;;;;;;;5069080;28;20032;-70
2023/03/22 09:01:53;;;;;;;22.63;6.50;;;;;;;;;;5068989;28;20358;-66
2023/03/22 09:04:18;;;;;;;15.75;6.05;;;;;;;;;;5081381;28;20591;-71
2023/03/22 09:06:44;;;;;;;10.60;5.28;;;;;;;;;;5079019;28;20027;-66
2023/03/22 09:09:09;;;;;;;9.02;5.28;;;;;;;;;;5089092;28;20022;-66
2023/03/22 09:11:36;;;;;;;14.75;5.22;;;;;;;;;;5068689;28;20016;-67
2023/03/22 09:14:02;;;;;;;12.35;5.00;;;;;;;;;;5068859;28;20028;-68
2023/03/22 09:16:27;;;;;;;11.30;5.05;;;;;;;;;;5068938;28;20100;-69
2023/03/22 09:18:52;;;;;;;9.98;4.43;;;;;;;;;;5068989;28;20052;-66
2023/03/22 09:21:18;;;;;;;8.13;4.30;;;;;;;;;;5073793;28;20048;-69
2023/03/22 09:23:46;;;;;;;13.75;5.70;;;;;;;;;;5073010;28;20631;-67
2023/03/22 09:26:11;;;;;;;10.88;4.50;;;;;;;;;;5068892;28;20121;-67
2023/03/22 09:28:37;;;;;;;8.95;4.85;;;;;;;;;;5051111;28;20029;-70
2023/03/22 09:31:06;;;;;;;11.85;4.53;;;;;;;;;;5069526;28;20119;-68
2023/03/22 09:33:32;;;;;;;8.52;4.10;;;;;;;;;;5069246;28;20028;-68
2023/03/22 09:35:57;;;;;;;10.43;4.68;;;;;;;;;;5070021;28;20339;-68
2023/03/22 09:38:23;;;;;;;14.10;5.45;;;;;;;;;;5072838;28;20040;-66
2023/03/22 09:40:59;;;;;;;15.07;5.28;;;;;;;;;;5092393;28;20012;-68
2023/03/22 09:43:25;;;;;;;9.77;5.28;;;;;;;;;;5095409;28;20020;-67
2023/03/22 09:45:50;;;;;;;8.40;4.60;;;;;;;;;;5069128;28;20016;-66
2023/03/22 09:48:18;;;;;;;12.32;5.30;;;;;;;;;;5068377;28;20651;-69
2023/03/22 09:50:47;;;;;;;14.43;4.90;;;;;;;;;;5072819;28;20112;-66
2023/03/22 09:53:13;;;;;;;12.52;4.65;;;;;;;;;;5078914;28;20269;-64
2023/03/22 09:55:39;;;;;;;8.48;4.80;;;;;;;;;;5076452;28;20028;-68
2023/03/22 09:58:23;;;;;;;11.20;5.15;;;;;;;;;;5069577;28;20031;-66
2023/03/22 10:00:53;;;;;;;13.68;3.80;;;;;;;;;;5070296;28;20024;-68
2023/03/22 10:03:23;;;;;;;9.95;4.13;;;;;;;;;;5073749;28;20100;-66
2023/03/22 10:05:56;;;;;;;9.00;4.20;;;;;;;;;;5090139;28;20013;-66
2023/03/22 10:08:42;;;;;;;9.07;3.97;;;;;;;;;;5082789;28;20037;-68
2023/03/22 10:11:22;;;;;;;12.85;4.28;;;;;;;;;;5054980;28;20104;-68
2023/03/22 10:14:07;;;;;;;8.88;3.38;;;;;;;;;;5069197;28;20123;-67
2023/03/22 10:16:34;;;;;;;8.00;3.65;;;;;;;;;;5053878;28;20028;-65
2023/03/22 10:19:03;;;;;;;8.77;4.65;;;;;;;;;;5068381;28;20059;-67
2023/03/22 10:21:28;;;;;;;7.07;4.45;;;;;;;;;;5071223;28;20020;-68
2023/03/22 10:23:59;;;;;;;9.27;3.38;;;;;;;;;;5054145;28;20411;-65
2023/03/22 10:26:28;;;;;;;9.23;3.58;;;;;;;;;;5068235;28;20488;-65
2023/03/22 10:29:05;;;;;;;8.23;4.05;;;;;;;;;;5068683;28;20013;-69
2023/03/22 10:31:32;;;;;;;8.02;3.95;;;;;;;;;;5068471;28;20032;-69
2023/03/22 10:34:00;;;;;;;7.65;3.72;;;;;;;;;;5068791;28;20025;-68
2023/03/22 10:36:29;;;;;;;11.93;4.47;;;;;;;;;;5072691;28;20016;-66
2023/03/22 10:38:57;;;;;;;9.15;4.50;;;;;;;;;;5072319;28;20046;-68
2023/03/22 10:41:24;;;;;;;15.80;3.33;;;;;;;;;;5093807;28;20606;-68
2023/03/22 10:43:52;;;;;;;14.25;3.80;;;;;;;;;;5095536;28;20104;-67
2023/03/22 10:46:18;;;;;;;11.10;3.93;;;;;;;;;;5072588;28;20020;-65
2023/03/22 10:48:45;;;;;;;14.10;4.00;;;;;;;;;;5072529;28;20020;-69
2023/03/22 10:51:19;;;;;;;8.15;3.53;;;;;;;;;;5053764;28;20043;-66
2023/03/22 10:53:46;;;;;;;10.32;3.45;;;;;;;;;;5079970;28;20051;-67
2023/03/22 10:56:12;;;;;;;9.93;3.75;;;;;;;;;;5072000;28;20035;-66
2023/03/22 10:58:37;;;;;;;8.00;3.63;;;;;;;;;;5071557;28;20071;-68
2023/03/22 11:01:07;;;;;;;8.13;3.25;;;;;;;;;;5071442;28;20492;-69
2023/03/22 11:03:35;;;;;;;9.90;3.45;;;;;;;;;;5079974;28;20095;-68
2023/03/22 11:06:14;;;;;;;10.95;3.58;;;;;;;;;;5091708;28;20017;-67
2023/03/22 11:08:39;;;;;;;;;;;;;;;;;;5093077;28;20043;-70
2023/03/22 11:11:06;;;;;;;6.00;3.20;;;;;;;;;;5074908;28;19940;-70
2023/03/22 11:13:32;;;;;;;6.55;3.40;;;;;;;;;;5071892;28;20257;-66
2023/03/22 11:16:00;;;;;;;6.97;3.80;;;;;;;;;;5072364;28;20397;-69
2023/03/22 11:18:29;;;;;;;6.68;3.50;;;;;;;;;;5053898;28;20112;-70
2023/03/22 11:20:58;;;;;;;11.30;3.50;;;;;;;;;;5053880;28;20044;-69
2023/03/22 11:23:24;;;;;;;8.05;2.85;;;;;;;;;;5084498;28;20020;-70
2023/03/22 11:25:51;;;;;;;5.80;2.38;;;;;;;;;;5053719;28;20021;-69
2023/03/22 11:28:20;;;;;;;8.43;2.38;;;;;;;;;;5071090;28;20104;-69
2023/03/22 11:31:00;;;;;;;5.72;1.98;;;;;;;;;;5071248;28;20486;-71
2023/03/22 11:33:26;;;;;;;8.13;2.03;;;;;;;;;;5070978;28;20494;-68
2023/03/22 11:35:55;;;;;;;3.28;1.52;;;;;;;;;;5071687;28;20016;-71
2023/03/22 11:38:29;;;;;;;7.07;2.00;;;;;;;;;;5079347;28;20490;-68
2023/03/22 11:40:57;;;;;;;6.55;1.65;;;;;;;;;;5094852;28;20040;-69
2023/03/22 11:43:23;;;;;;;5.55;2.10;;;;;;;;;;5096518;28;20025;-68
2023/03/22 11:45:52;;;;;;;2.90;1.35;;;;;;;;;;5071080;28;20085;-66
2023/03/22 11:48:20;;;;;;;2.55;1.10;;;;;;;;;;5072053;28;20012;-67
2023/03/22 11:50:45;;;;;;;6.57;1.93;;;;;;;;;;5071738;28;20024;-68
2023/03/22 11:53:15;;;;;;;3.72;1.30;;;;;;;;;;5073520;28;20074;-66
2023/03/22 11:55:41;;;;;;;4.88;1.52;;;;;;;;;;5071638;28;20012;-67
2023/03/22 11:58:06;;;;;;;4.63;1.67;;;;;;;;;;5071170;28;20150;-67
2023/03/22 12:00:36;;;;;;;6.80;1.63;;;;;;;;;;5070721;28;20056;-67
2023/03/22 12:03:15;;;;;;;6.95;1.17;;;;;;;;;;5071559;28;20031;-71
2023/03/22 12:05:42;;;;;;;1.95;1.08;;;;;;;;;;5071873;28;20016;-69
2023/03/22 12:08:10;;;;;;;11.90;1.65;;;;;;;;;;5075659;28;20401;-68
2023/03/22 12:10:38;;;;;;;2.45;1.02;;;;;;;;;;5075878;28;20017;-69
2023/03/22 12:13:24;;;;;;;3.97;1.30;;;;;;;;;;5052523;28;20020;-67
2023/03/22 12:15:52;;;;;;;6.85;1.40;;;;;;;;;;5069050;28;20104;-69
2023/03/22 12:18:18;;;;;;;4.85;1.17;;;;;;;;;;5070425;28;20024;-68
2023/03/22 12:20:54;;;;;;;2.90;1.10;;;;;;;;;;5070530;28;20028;-65
2023/03/22 12:23:20;;;;;;;3.88;1.45;;;;;;;;;;5071089;28;20248;-69
2023/03/22 12:26:04;;;;;;;3.33;1.30;;;;;;;;;;5070849;28;20020;-67
2023/03/22 12:28:34;;;;;;;2.70;1.10;;;;;;;;;;5070529;28;20057;-66
2023/03/22 12:31:02;;;;;;;6.95;1.27;;;;;;;;;;5070788;28;20048;-70
2023/03/22 12:33:29;;;;;;;6.30;1.48;;;;;;;;;;5070723;28;20041;-69
2023/03/22 12:35:56;;;;;;;3.50;1.02;;;;;;;;;;5071024;28;20630;-70
2023/03/22 12:38:32;;;;;;;6.80;1.80;;;;;;;;;;5070462;28;20017;-69
2023/03/22 12:41:00;;;;;;;6.80;1.40;;;;;;;;;;5097159;28;20100;-68
2023/03/22 12:43:32;;;;;;;2.83;1.27;;;;;;;;;;5095244;28;20482;-69
2023/03/22 12:45:59;;;;;;;2.78;1.00;;;;;;;;;;5070333;28;20605;-68
2023/03/22 12:48:31;;;;;;;2.35;1.13;;;;;;;;;;5070722;28;20047;-70
2023/03/22 12:51:01;;;;;;;4.63;1.30;;;;;;;;;;5070510;28;20017;-70
2023/03/22 12:53:33;;;;;;;5.18;1.20;;;;;;;;;;5071065;28;20016;-69
2023/03/22 12:55:59;;;;;;;3.28;1.27;;;;;;;;;;5075398;28;20586;-69
2023/03/22 12:58:25;;;;;;;3.33;1.48;;;;;;;;;;5069982;28;20044;-67
2023/03/22 13:01:15;;;;;;;6.72;1.50;;;;;;;;;;5070800;28;20025;-68
2023/03/22 13:03:45;;;;;;;3.85;1.10;;;;;;;;;;5078834;28;20077;-69
2023/03/22 13:06:31;;;;;;;6.65;1.25;;;;;;;;;;5067896;28;20455;-69
2023/03/22 13:09:22;;;;;;;6.25;1.80;;;;;;;;;;5086417;28;20020;-69
2023/03/22 13:12:08;;;;;;;2.92;1.20;;;;;;;;;;5038450;28;20048;-69
2023/03/22 13:14:51;;;;;;;3.88;1.45;;;;;;;;;;5070309;28;20023;-69
2023/03/22 13:17:37;;;;;;;5.22;1.55;;;;;;;;;;5064970;28;20029;-66
2023/03/22 13:20:06;;;;;;;4.53;1.33;;;;;;;;;;5068614;28;20121;-66
2023/03/22 13:22:31;;;;;;;;;;;;;;;;;;5070077;28;20024;-68
2023/03/22 13:24:58;;;;;;;2.47;1.10;;;;;;;;;;5075843;28;19904;-70
2023/03/22 13:27:34;;;;;;;6.05;1.40;;;;;;;;;;5069069;28;20020;-67
2023/03/22 13:30:03;;;;;;;10.75;2.25;;;;;;;;;;5068477;28;20032;-69
2023/03/22 13:32:32;;;;;;;3.03;1.10;;;;;;;;;;5068686;28;20379;-68
2023/03/22 13:34:57;;;;;;;3.67;1.25;;;;;;;;;;5068799;28;20028;-69
2023/03/22 13:37:33;;;;;;;7.32;1.88;;;;;;;;;;5069064;28;20187;-67
2023/03/22 13:40:24;;;;;;;3.78;1.30;;;;;;;;;;5075048;28;20069;-69
2023/03/22 13:42:50;;;;;;;4.32;1.33;;;;;;;;;;5097054;28;20031;-68
2023/03/22 13:45:30;;;;;;;3.80;1.30;;;;;;;;;;5068540;28;20017;-69
2023/03/22 13:48:25;;;;;;;6.57;1.40;;;;;;;;;;5068212;28;20078;-69
2023/03/22 13:50:51;;;;;;;5.88;1.70;;;;;;;;;;5050602;28;20024;-68
2023/03/22 13:53:22;;;;;;;4.68;1.70;;;;;;;;;;5069779;28;20123;-71
2023/03/22 13:55:48;;;;;;;4.82;1.73;;;;;;;;;;5077757;28;20163;-68
2023/03/22 13:58:34;;;;;;;3.55;1.55;;;;;;;;;;5071963;28;20146;-65
2023/03/22 14:01:01;;;;;;;5.30;1.85;;;;;;;;;;5072728;28;20043;-68
2023/03/22 14:03:37;;;;;;;6.13;1.70;;;;;;;;;;5077968;28;20024;-69
2023/03/22 14:06:03;;;;;;;4.28;1.80;;;;;;;;;;5077738;28;20426;-68
2023/03/22 14:08:29;;;;;;;8.57;1.65;;;;;;;;;;5085012;28;20466;-68
2023/03/22 14:10:57;;;;;;;7.45;1.60;;;;;;;;;;5080342;28;20401;-68
2023/03/22 14:13:22;;;;;;;6.22;1.63;;;;;;;;;;5072495;28;20047;-68
2023/03/22 14:15:49;;;;;;;2.50;1.20;;;;;;;;;;5071974;28;20028;-68
2023/03/22 14:18:19;;;;;;;3.63;1.27;;;;;;;;;;5072619;28;20032;-69
2023/03/22 14:20:48;;;;;;;8.40;1.45;;;;;;;;;;5073256;28;20017;-67
2023/03/22 14:23:16;;;;;;;3.97;1.33;;;;;;;;;;5072401;28;20021;-69
2023/03/22 14:25:43;;;;;;;2.97;1.35;;;;;;;;;;5076504;28;20020;-66
2023/03/22 14:28:16;;;;;;;4.90;1.60;;;;;;;;;;5080962;28;20070;-66
2023/03/22 14:30:42;;;;;;;2.80;1.13;;;;;;;;;;5072869;28;20025;-67
2023/03/22 14:33:14;;;;;;;5.38;1.42;;;;;;;;;;5072378;28;20651;-68
2023/03/22 14:35:42;;;;;;;5.75;1.33;;;;;;;;;;5072568;28;20027;-67
2023/03/22 14:38:12;;;;;;;14.32;1.30;;;;;;;;;;5072551;28;20055;-69
2023/03/22 14:40:37;;;;;;;3.03;1.30;;;;;;;;;;5079186;28;20060;-70